createdAt,value
2022-12-11T00:01:31.572Z,24.04
2022-12-11T00:04:01.851Z,24.02
2022-12-11T00:06:31.968Z,24.02
2022-12-11T00:09:02.246Z,24.02
2022-12-11T00:11:32.463Z,24.02
2022-12-11T00:14:02.521Z,24.01
2022-12-11T00:16:32.243Z,24.00
2022-12-11T00:19:02.382Z,23.98
2022-12-11T00:21:32.304Z,23.93
2022-12-11T00:24:02.415Z,23.89
2022-12-11T00:26:32.356Z,23.87
2022-12-11T00:29:02.140Z,23.84
2022-12-11T00:31:32.298Z,23.82
2022-12-11T00:34:03.900Z,23.82
2022-12-11T00:36:34.135Z,23.78
2022-12-11T00:39:04.701Z,23.73
2022-12-11T00:41:34.574Z,23.68
2022-12-11T00:44:04.414Z,23.67
2022-12-11T00:46:34.528Z,23.67
2022-12-11T00:49:04.259Z,23.66
2022-12-11T00:51:33.992Z,23.61
2022-12-11T00:54:04.486Z,23.59
2022-12-11T00:56:36.484Z,23.60
2022-12-11T00:59:06.842Z,23.68
2022-12-11T01:01:36.878Z,23.68
2022-12-11T01:04:07.055Z,23.71
2022-12-11T01:06:37.038Z,23.78
2022-12-11T01:09:25.266Z,23.84
2022-12-11T01:11:55.540Z,23.93
2022-12-11T01:14:25.554Z,23.88
2022-12-11T01:16:55.693Z,23.96
2022-12-11T01:19:25.432Z,24.02
2022-12-11T01:21:55.696Z,23.97
2022-12-11T01:24:25.380Z,24.00
2022-12-11T01:26:55.146Z,23.94
2022-12-11T01:29:24.871Z,23.93
2022-12-11T01:31:55.026Z,23.93
2022-12-11T01:34:24.856Z,23.89
2022-12-11T01:36:55.281Z,23.85
2022-12-11T01:39:25.368Z,23.75
2022-12-11T01:42:00.230Z,23.71
2022-12-11T01:44:33.062Z,23.63
2022-12-11T01:47:03.170Z,23.60
2022-12-11T01:49:32.973Z,23.59
2022-12-11T01:52:12.907Z,23.60
2022-12-11T01:54:43.952Z,23.61
2022-12-11T01:57:16.735Z,23.71
2022-12-11T01:59:48.242Z,23.70
2022-12-11T02:02:29.265Z,23.75
2022-12-11T02:04:59.539Z,23.74
2022-12-11T02:07:31.590Z,23.66
2022-12-11T02:10:02.018Z,23.60
2022-12-11T02:13:01.493Z,23.64
2022-12-11T02:15:50.016Z,23.66
2022-12-11T02:18:32.160Z,23.80
2022-12-11T02:21:11.025Z,23.85
2022-12-11T02:24:06.372Z,23.80
2022-12-11T02:26:48.609Z,23.77
2022-12-11T02:29:24.481Z,23.78
2022-12-11T02:32:04.330Z,23.71
2022-12-11T02:35:13.663Z,23.70
2022-12-11T02:37:46.957Z,23.67
2022-12-11T02:40:34.611Z,23.64
2022-12-11T02:43:08.675Z,23.61
2022-12-11T02:45:41.214Z,23.61
2022-12-11T02:48:13.561Z,23.64
2022-12-11T02:50:48.990Z,23.68
2022-12-11T02:53:23.940Z,23.74
2022-12-11T02:56:03.191Z,23.73
2022-12-11T02:58:35.187Z,23.70
2022-12-11T03:01:05.862Z,23.68
2022-12-11T03:03:35.937Z,23.68
2022-12-11T03:06:06.809Z,23.67
2022-12-11T03:08:36.650Z,23.63
2022-12-11T03:11:06.485Z,23.63
2022-12-11T03:13:36.256Z,23.66
2022-12-11T03:16:31.407Z,23.63
2022-12-11T03:19:13.639Z,23.66
2022-12-11T03:22:11.985Z,23.66
2022-12-11T03:25:08.587Z,23.64
2022-12-11T03:27:46.430Z,23.68
2022-12-11T03:30:19.801Z,23.67
2022-12-11T03:32:56.349Z,23.68
2022-12-11T03:35:38.520Z,23.71
2022-12-11T03:38:24.121Z,23.74
2022-12-11T03:40:57.201Z,23.73
2022-12-11T03:43:29.335Z,23.71
2022-12-11T03:46:01.385Z,23.68
2022-12-11T03:48:36.354Z,23.67
2022-12-11T03:51:08.956Z,23.67
2022-12-11T03:53:40.326Z,23.68
2022-12-11T03:56:13.689Z,23.67
2022-12-11T03:58:43.643Z,23.68
2022-12-11T04:01:13.946Z,23.67
2022-12-11T04:03:44.158Z,23.64
2022-12-11T04:06:13.880Z,23.68
2022-12-11T04:08:44.184Z,23.67
2022-12-11T04:11:32.362Z,23.61
2022-12-11T04:14:27.354Z,23.61
2022-12-11T04:16:58.236Z,23.63
2022-12-11T04:19:47.129Z,23.67
2022-12-11T04:22:37.608Z,23.63
2022-12-11T04:25:09.709Z,23.63
2022-12-11T04:27:51.812Z,23.60
2022-12-11T04:30:32.341Z,23.59
2022-12-11T04:33:04.346Z,23.56
2022-12-11T04:35:34.295Z,23.57
2022-12-11T04:38:04.031Z,23.57
2022-12-11T04:40:33.779Z,23.54
2022-12-11T04:43:03.581Z,23.56
2022-12-11T04:45:33.540Z,23.54
2022-12-11T04:48:03.242Z,23.57
2022-12-11T04:50:33.003Z,23.54
2022-12-11T04:53:02.717Z,23.57
2022-12-11T04:55:32.507Z,23.56
2022-12-11T04:58:02.288Z,23.56
2022-12-11T05:00:31.975Z,23.56
2022-12-11T05:03:01.786Z,23.54
2022-12-11T05:05:32.201Z,23.53
2022-12-11T05:08:02.017Z,23.53
2022-12-11T05:10:32.128Z,23.50
2022-12-11T05:13:01.822Z,23.47
2022-12-11T05:15:31.564Z,23.49
2022-12-11T05:18:01.245Z,23.46
2022-12-11T05:20:30.983Z,23.47
2022-12-11T05:23:01.148Z,23.46
2022-12-11T05:25:30.976Z,23.49
2022-12-11T05:28:00.670Z,23.46
2022-12-11T05:30:31.324Z,23.46
2022-12-11T05:33:01.895Z,23.45
2022-12-11T05:35:31.845Z,23.43
2022-12-11T05:38:02.602Z,23.42
2022-12-11T05:40:32.327Z,23.39
2022-12-11T05:43:02.010Z,23.40
2022-12-11T05:45:31.703Z,23.40
2022-12-11T05:48:01.567Z,23.37
2022-12-11T05:50:31.264Z,23.36
2022-12-11T05:53:01.089Z,23.36
2022-12-11T05:55:31.347Z,23.30
2022-12-11T05:58:01.075Z,23.29
2022-12-11T06:00:35.887Z,23.24
2022-12-11T06:03:06.547Z,23.24
2022-12-11T06:05:43.989Z,23.23
2022-12-11T06:08:14.176Z,23.20
2022-12-11T06:10:48.527Z,23.19
2022-12-11T06:13:19.528Z,23.23
2022-12-11T06:15:49.586Z,23.22
2022-12-11T06:18:19.389Z,23.20
2022-12-11T06:20:49.139Z,23.19
2022-12-11T06:23:20.076Z,23.18
2022-12-11T06:25:50.349Z,23.16
2022-12-11T06:28:20.084Z,23.13
2022-12-11T06:30:50.219Z,23.15
2022-12-11T06:33:19.908Z,23.10
2022-12-11T06:35:49.632Z,23.12
2022-12-11T06:38:19.660Z,23.06
2022-12-11T06:40:57.237Z,23.08
2022-12-11T06:43:27.243Z,23.05
2022-12-11T06:46:02.086Z,23.03
2022-12-11T06:48:33.936Z,23.03
2022-12-11T06:51:10.840Z,23.03
2022-12-11T06:53:41.665Z,23.05
2022-12-11T06:56:15.070Z,23.05
2022-12-11T06:58:45.535Z,23.03
2022-12-11T07:01:21.826Z,23.05
2022-12-11T07:03:55.056Z,23.02
2022-12-11T07:06:26.099Z,23.05
2022-12-11T07:08:56.737Z,23.05
2022-12-11T07:11:26.585Z,23.05
2022-12-11T07:13:56.438Z,23.09
2022-12-11T07:16:26.148Z,23.12
2022-12-11T07:18:55.878Z,23.13
2022-12-11T07:21:25.591Z,23.12
2022-12-11T07:23:55.498Z,23.09
2022-12-11T07:26:25.207Z,23.09
2022-12-11T07:28:57.818Z,23.08
2022-12-11T07:31:30.365Z,23.08
2022-12-11T07:34:05.736Z,23.08
2022-12-11T07:36:36.449Z,23.06
2022-12-11T07:39:06.394Z,23.05
2022-12-11T07:41:36.311Z,23.03
2022-12-11T07:44:11.974Z,22.99
2022-12-11T07:46:42.327Z,22.92
2022-12-11T07:49:12.218Z,22.87
2022-12-11T07:51:42.633Z,22.84
2022-12-11T07:54:18.684Z,22.75
2022-12-11T07:56:53.863Z,22.68
2022-12-11T07:59:24.200Z,22.64
2022-12-11T08:01:54.858Z,22.58
2022-12-11T08:04:25.562Z,22.60
2022-12-11T08:06:55.277Z,22.60
2022-12-11T08:09:24.973Z,22.65
2022-12-11T08:11:56.292Z,22.76
2022-12-11T08:14:27.440Z,22.72
2022-12-11T08:16:58.584Z,22.71
2022-12-11T08:19:29.210Z,22.72
2022-12-11T08:21:58.967Z,22.73
2022-12-11T08:24:28.745Z,22.82
2022-12-11T08:26:58.758Z,22.82
2022-12-11T08:29:28.591Z,22.79
2022-12-11T08:31:58.296Z,22.76
2022-12-11T08:34:28.043Z,22.76
2022-12-11T08:36:57.769Z,22.76
2022-12-11T08:39:28.865Z,22.79
2022-12-11T08:41:58.706Z,22.87
2022-12-11T08:44:29.468Z,22.92
2022-12-11T08:46:59.156Z,22.98
2022-12-11T08:49:34.037Z,23.05
2022-12-11T08:52:08.029Z,23.13
2022-12-11T08:54:39.657Z,23.18
2022-12-11T08:57:09.782Z,23.22
2022-12-11T08:59:39.796Z,23.24
2022-12-11T09:02:15.718Z,23.30
2022-12-11T09:04:46.165Z,23.43
2022-12-11T09:07:15.882Z,23.45
2022-12-11T09:09:45.712Z,23.50
2022-12-11T09:12:15.663Z,23.51
2022-12-11T09:14:45.484Z,23.59
2022-12-11T09:17:15.273Z,23.68
2022-12-11T09:19:45.692Z,23.84
2022-12-11T09:22:15.387Z,23.98
2022-12-11T09:24:45.098Z,24.07
2022-12-11T09:27:14.934Z,24.17
2022-12-11T09:29:44.991Z,24.21
2022-12-11T09:32:14.710Z,24.19
2022-12-11T09:34:44.486Z,24.32
2022-12-11T09:37:14.265Z,24.38
2022-12-11T09:39:44.341Z,24.49
2022-12-11T09:42:19.630Z,24.49
2022-12-11T09:44:49.104Z,24.65
2022-12-11T09:47:26.832Z,24.60
2022-12-11T09:50:20.815Z,24.76
2022-12-11T09:53:14.457Z,24.69
2022-12-11T09:55:55.200Z,24.82
2022-12-11T09:58:36.230Z,24.90
2022-12-11T10:01:12.120Z,24.97
2022-12-11T10:03:51.183Z,25.02
2022-12-11T10:06:30.267Z,24.98
2022-12-11T10:09:19.239Z,24.93
2022-12-11T10:11:57.857Z,25.10
2022-12-11T10:14:58.078Z,25.27
2022-12-11T10:17:30.376Z,25.64
2022-12-11T10:20:25.385Z,25.81
2022-12-11T10:22:57.991Z,25.93
2022-12-11T10:25:41.998Z,25.97
2022-12-11T10:28:17.340Z,26.09
2022-12-11T10:30:59.360Z,26.40
2022-12-11T10:33:45.174Z,26.20
2022-12-11T10:36:20.258Z,26.22
2022-12-11T10:38:50.307Z,26.47
2022-12-11T10:41:25.644Z,26.58
2022-12-11T10:43:55.831Z,26.60
2022-12-11T10:46:30.530Z,26.58
2022-12-11T10:49:02.154Z,26.70
2022-12-11T10:51:36.685Z,26.89
2022-12-11T10:54:08.666Z,27.06
2022-12-11T10:56:39.933Z,27.19
2022-12-11T10:59:25.716Z,26.88
2022-12-11T11:01:59.210Z,26.58
2022-12-11T11:04:40.311Z,27.59
2022-12-11T11:07:15.451Z,27.59
2022-12-11T11:09:45.157Z,27.36
2022-12-11T11:12:26.383Z,26.89
2022-12-11T11:15:08.221Z,26.72
2022-12-11T11:18:08.070Z,26.98
2022-12-11T11:20:37.900Z,27.19
2022-12-11T11:23:17.536Z,27.03
2022-12-11T11:25:59.251Z,27.16
2022-12-11T11:28:49.544Z,27.16
2022-12-11T11:31:20.991Z,27.29
2022-12-11T11:33:58.783Z,27.32
2022-12-11T11:36:32.731Z,27.60
2022-12-11T11:39:17.474Z,27.57
2022-12-11T11:42:12.043Z,27.51
2022-12-11T11:45:11.998Z,27.59
2022-12-11T11:48:05.075Z,27.56
2022-12-11T11:50:42.647Z,27.61
2022-12-11T11:53:24.222Z,27.97
2022-12-11T11:55:56.933Z,27.90
2022-12-11T11:58:37.566Z,27.70
2022-12-11T12:01:18.428Z,27.73
2022-12-11T12:03:50.590Z,28.08
2022-12-11T12:07:01.995Z,27.98
2022-12-11T12:10:00.280Z,28.34
2022-12-11T12:13:01.963Z,28.53
2022-12-11T12:15:53.435Z,29.34
2022-12-11T12:18:28.787Z,29.04
2022-12-11T12:21:07.782Z,29.58
2022-12-11T12:24:14.823Z,29.88
2022-12-11T12:26:59.081Z,29.35
2022-12-11T12:29:58.088Z,30.48
2022-12-11T12:32:42.228Z,31.36
2022-12-11T12:35:15.456Z,30.41
2022-12-11T12:38:00.031Z,30.70
2022-12-11T12:40:38.161Z,30.57
2022-12-11T12:43:26.489Z,29.95
2022-12-11T12:46:11.444Z,29.98
2022-12-11T12:48:41.952Z,30.13
2022-12-11T12:51:16.294Z,30.10
2022-12-11T12:53:56.075Z,29.71
2022-12-11T12:56:27.336Z,30.09
2022-12-11T12:58:57.784Z,30.61
2022-12-11T13:01:31.113Z,30.57
2022-12-11T13:04:16.791Z,30.44
2022-12-11T13:06:59.132Z,30.24
2022-12-11T13:09:32.652Z,30.08
2022-12-11T13:12:15.037Z,29.73
2022-12-11T13:14:45.338Z,29.62
2022-12-11T13:17:27.355Z,29.86
2022-12-11T13:20:20.721Z,30.05
2022-12-11T13:23:09.849Z,29.98
2022-12-11T13:25:49.331Z,30.41
2022-12-11T13:28:29.339Z,30.85
2022-12-11T13:31:29.904Z,31.18
2022-12-11T13:34:10.714Z,31.33
2022-12-11T13:36:42.435Z,31.81
2022-12-11T13:39:20.066Z,32.93
2022-12-11T13:41:56.814Z,33.02
2022-12-11T13:44:30.628Z,33.22
2022-12-11T13:47:04.503Z,32.83
2022-12-11T13:49:42.959Z,32.98
2022-12-11T13:52:27.049Z,32.87
2022-12-11T13:55:01.247Z,31.39
2022-12-11T13:57:32.275Z,31.40
2022-12-11T14:00:02.465Z,30.47
2022-12-11T14:02:43.743Z,31.86
2022-12-11T14:05:15.862Z,32.20
2022-12-11T14:07:59.785Z,32.75
2022-12-11T14:10:33.113Z,32.45
2022-12-11T14:13:28.345Z,32.35
2022-12-11T14:15:58.450Z,32.48
2022-12-11T14:18:36.737Z,31.81
2022-12-11T14:21:08.145Z,32.25
2022-12-11T14:23:39.502Z,33.26
2022-12-11T14:26:25.373Z,33.43
2022-12-11T14:28:56.355Z,33.47
2022-12-11T14:31:31.968Z,32.75
2022-12-11T14:34:13.646Z,32.72
2022-12-11T14:36:45.319Z,32.79
2022-12-11T14:39:27.266Z,33.67
2022-12-11T14:42:05.895Z,34.31
2022-12-11T14:44:50.455Z,34.38
2022-12-11T14:47:31.342Z,32.90
2022-12-11T14:50:10.735Z,32.10
2022-12-11T14:52:44.741Z,33.44
2022-12-11T14:55:23.155Z,33.99
2022-12-11T14:58:08.643Z,34.01
2022-12-11T15:00:39.602Z,33.94
2022-12-11T15:03:36.950Z,34.60
2022-12-11T15:06:36.165Z,34.55
2022-12-11T15:09:19.491Z,34.48
2022-12-11T15:11:51.709Z,34.79
2022-12-11T15:14:23.957Z,35.15
2022-12-11T15:16:57.765Z,35.10
2022-12-11T15:19:32.907Z,34.84
2022-12-11T15:22:08.030Z,34.96
2022-12-11T15:24:45.043Z,35.18
2022-12-11T15:27:33.609Z,35.58
2022-12-11T15:30:27.915Z,35.13
2022-12-11T15:33:23.338Z,35.48
2022-12-11T15:36:02.284Z,35.58
2022-12-11T15:38:38.763Z,35.59
2022-12-11T15:41:15.845Z,34.86
2022-12-11T15:43:46.728Z,34.93
2022-12-11T15:46:16.583Z,35.75
2022-12-11T15:48:46.427Z,36.40
2022-12-11T15:51:16.770Z,36.32
2022-12-11T15:53:46.498Z,35.68
2022-12-11T15:56:18.000Z,35.55
2022-12-11T15:58:50.883Z,35.89
2022-12-11T16:01:20.811Z,36.27
2022-12-11T16:03:51.549Z,35.86
2022-12-11T16:06:22.212Z,35.82
2022-12-11T16:08:52.597Z,36.20
2022-12-11T16:11:23.648Z,35.64
2022-12-11T16:13:53.854Z,35.86
2022-12-11T16:16:23.668Z,36.07
2022-12-11T16:18:53.411Z,36.24
2022-12-11T16:21:23.141Z,36.04
2022-12-11T16:23:53.374Z,35.82
2022-12-11T16:26:23.093Z,36.07
2022-12-11T16:28:52.788Z,36.27
2022-12-11T16:31:22.536Z,36.53
2022-12-11T16:33:52.300Z,35.66
2022-12-11T16:36:22.463Z,35.42
2022-12-11T16:38:54.252Z,35.79
2022-12-11T16:41:25.195Z,36.03
2022-12-11T16:43:56.048Z,36.29
2022-12-11T16:46:26.929Z,36.39
2022-12-11T16:48:56.881Z,35.86
2022-12-11T16:51:26.652Z,36.09
2022-12-11T16:53:56.363Z,36.03
2022-12-11T16:56:27.692Z,36.74
2022-12-11T16:58:57.793Z,36.96
2022-12-11T17:01:28.989Z,37.18
2022-12-11T17:04:00.701Z,37.29
2022-12-11T17:06:30.893Z,37.02
2022-12-11T17:09:00.677Z,37.01
2022-12-11T17:11:30.543Z,37.18
2022-12-11T17:14:01.621Z,37.08
2022-12-11T17:16:32.317Z,36.55
2022-12-11T17:19:04.503Z,36.24
2022-12-11T17:21:35.009Z,36.81
2022-12-11T17:24:04.768Z,36.95
2022-12-11T17:26:34.680Z,36.44
2022-12-11T17:29:05.104Z,36.58
2022-12-11T17:31:35.391Z,36.82
2022-12-11T17:34:05.622Z,37.08
2022-12-11T17:36:35.574Z,36.74
2022-12-11T17:39:06.354Z,36.63
2022-12-11T17:41:36.722Z,36.44
2022-12-11T17:44:06.899Z,36.53
2022-12-11T17:46:36.726Z,36.96
2022-12-11T17:49:07.393Z,36.96
2022-12-11T17:51:37.314Z,37.01
2022-12-11T17:54:07.195Z,36.74
2022-12-11T17:56:37.356Z,36.74
2022-12-11T17:59:07.188Z,36.84
2022-12-11T18:01:37.300Z,37.08
2022-12-11T18:04:07.315Z,37.07
2022-12-11T18:06:37.700Z,36.66
2022-12-11T18:09:07.675Z,36.45
2022-12-11T18:11:37.421Z,36.34
2022-12-11T18:14:09.152Z,36.77
2022-12-11T18:16:42.594Z,36.36
2022-12-11T18:19:13.536Z,36.43
2022-12-11T18:21:46.781Z,36.78
2022-12-11T18:24:16.901Z,36.41
2022-12-11T18:26:47.115Z,36.45
2022-12-11T18:29:17.960Z,36.24
2022-12-11T18:31:48.265Z,36.55
2022-12-11T18:34:18.014Z,36.26
2022-12-11T18:36:49.348Z,36.16
2022-12-11T18:39:20.252Z,36.15
2022-12-11T18:42:03.502Z,36.22
2022-12-11T18:44:40.059Z,36.07
2022-12-11T18:47:10.125Z,35.95
2022-12-11T18:49:40.088Z,35.85
2022-12-11T18:52:09.815Z,35.62
2022-12-11T18:54:39.596Z,35.52
2022-12-11T18:57:09.726Z,35.68
2022-12-11T18:59:39.698Z,35.39
2022-12-11T19:02:10.110Z,35.11
2022-12-11T19:04:39.900Z,35.08
2022-12-11T19:07:09.754Z,34.71
2022-12-11T19:09:43.494Z,34.60
2022-12-11T19:12:19.681Z,34.22
2022-12-11T19:14:49.966Z,34.09
2022-12-11T19:17:20.350Z,33.97
2022-12-11T19:19:51.036Z,34.15
2022-12-11T19:22:21.562Z,34.46
2022-12-11T19:24:51.405Z,34.20
2022-12-11T19:27:23.139Z,33.91
2022-12-11T19:29:53.379Z,33.65
2022-12-11T19:32:23.518Z,33.54
2022-12-11T19:34:56.929Z,33.44
2022-12-11T19:37:27.594Z,33.27
2022-12-11T19:39:57.863Z,33.00
2022-12-11T19:42:30.917Z,32.95
2022-12-11T19:45:01.707Z,32.93
2022-12-11T19:47:31.912Z,32.95
2022-12-11T19:50:02.054Z,32.69
2022-12-11T19:52:34.109Z,32.51
2022-12-11T19:55:06.945Z,32.37
2022-12-11T19:57:37.128Z,32.18
2022-12-11T20:00:07.817Z,32.07
2022-12-11T20:02:41.542Z,32.01
2022-12-11T20:05:13.283Z,31.81
2022-12-11T20:07:45.657Z,31.66
2022-12-11T20:10:16.753Z,31.50
2022-12-11T20:12:47.102Z,31.36
2022-12-11T20:15:20.057Z,31.25
2022-12-11T20:17:53.521Z,31.14
2022-12-11T20:20:25.851Z,30.96
2022-12-11T20:23:00.420Z,30.80
2022-12-11T20:25:30.347Z,30.68
2022-12-11T20:28:00.260Z,30.51
2022-12-11T20:30:30.196Z,30.39
2022-12-11T20:32:59.933Z,30.47
2022-12-11T20:35:29.900Z,30.30
2022-12-11T20:38:00.918Z,30.24
2022-12-11T20:40:31.099Z,30.06
2022-12-11T20:43:00.838Z,29.93
2022-12-11T20:45:30.949Z,29.85
2022-12-11T20:48:00.739Z,29.75
2022-12-11T20:50:30.792Z,29.58
2022-12-11T20:53:00.793Z,29.50
2022-12-11T20:55:30.539Z,29.37
2022-12-11T20:58:00.281Z,29.27
2022-12-11T21:00:30.210Z,29.18
2022-12-11T21:03:00.021Z,29.11
2022-12-11T21:05:30.137Z,28.97
2022-12-11T21:08:00.913Z,28.83
2022-12-11T21:10:31.962Z,28.69
2022-12-11T21:13:02.116Z,28.62
2022-12-11T21:15:31.840Z,28.44
2022-12-11T21:18:02.466Z,28.31
2022-12-11T21:20:32.238Z,28.22
2022-12-11T21:23:02.183Z,28.14
2022-12-11T21:25:32.183Z,28.07
2022-12-11T21:28:03.239Z,27.96
2022-12-11T21:30:33.349Z,27.90
2022-12-11T21:33:05.140Z,27.78
2022-12-11T21:35:35.298Z,27.71
2022-12-11T21:38:06.010Z,27.60
2022-12-11T21:40:36.410Z,27.50
2022-12-11T21:43:17.295Z,27.38
2022-12-11T21:46:03.086Z,27.30
2022-12-11T21:48:33.951Z,27.15
2022-12-11T21:51:17.504Z,27.12
2022-12-11T21:53:48.549Z,26.96
2022-12-11T21:56:22.333Z,26.91
2022-12-11T21:58:54.733Z,26.84
2022-12-11T22:01:28.104Z,26.77
2022-12-11T22:03:59.114Z,26.67
2022-12-11T22:06:32.283Z,26.54
2022-12-11T22:09:08.405Z,26.43
2022-12-11T22:11:38.689Z,26.26
2022-12-11T22:14:09.434Z,26.23
2022-12-11T22:16:39.752Z,26.13
2022-12-11T22:19:09.594Z,26.09
2022-12-11T22:21:39.766Z,26.02
2022-12-11T22:24:09.707Z,25.88
2022-12-11T22:26:39.452Z,25.72
2022-12-11T22:29:09.513Z,25.59
2022-12-11T22:31:39.207Z,25.44
2022-12-11T22:34:09.297Z,25.44
2022-12-11T22:36:39.958Z,25.42
2022-12-11T22:39:10.119Z,25.39
2022-12-11T22:41:43.388Z,25.25
2022-12-11T22:44:19.958Z,25.28
2022-12-11T22:46:50.891Z,25.38
2022-12-11T22:49:21.800Z,25.15
2022-12-11T22:51:51.595Z,25.03
2022-12-11T22:54:21.337Z,24.75
2022-12-11T22:56:51.304Z,24.57
2022-12-11T22:59:21.305Z,24.43
2022-12-11T23:01:51.399Z,24.30
2022-12-11T23:04:21.099Z,24.17
2022-12-11T23:06:50.813Z,24.02
2022-12-11T23:09:20.538Z,23.88
2022-12-11T23:11:51.181Z,23.80
2022-12-11T23:14:21.139Z,23.68
2022-12-11T23:16:51.087Z,23.64
2022-12-11T23:19:25.467Z,23.54
2022-12-11T23:21:55.954Z,23.45
2022-12-11T23:24:25.840Z,23.34
2022-12-11T23:26:56.081Z,23.29
2022-12-11T23:29:25.826Z,23.23
2022-12-11T23:31:55.553Z,23.18
2022-12-11T23:34:25.526Z,23.15
2022-12-11T23:36:55.571Z,23.12
2022-12-11T23:39:25.333Z,23.10
2022-12-11T23:41:56.272Z,23.09
2022-12-11T23:44:26.420Z,23.06
2022-12-11T23:46:56.164Z,23.05
2022-12-11T23:49:25.899Z,23.03
2022-12-11T23:51:55.694Z,23.02
2022-12-11T23:54:25.431Z,22.99
2022-12-11T23:56:55.355Z,22.98
2022-12-11T23:59:25.076Z,22.89
